aviador You're here:

EPPO Decoded Metar

POZNAN in POLAND
Report Time2017-11-20 21:00:00
UTC Time2017-11-20 21:18:51
Flight Rules mvfr MVFR
Wind260° at 04 kt
W.Decomp.*RWY 28: 3.7 kt HW 1.6 kt LCW
W.Rank260° ranks 2
Current wind is below 260° avg. (8.7)
Visibility8000 m
Phenomena:N/A
Clouds:Broken 023 Hf
Ceiling2,300 ft
Temp02°C (ISA -12)
Dew Point02°C (100% RH)
AAT-1.1°C
QNH1012 hPa
Density Alt-1,076 ft
Elevation302 ft
Report Wrong Elevation
Raw Report
EPPO 202100Z 26004KT 8000 BKN023 02/02 Q1012=

Extra information for EPPO:More info

Metar Taf Metar & Taf Last 4 Metars F.Rules Stats Wind Profile Meteogram Temp Stats Airport Information Weather charts Add Link Nearby VenuesMetar ALERT Operation Metar Decoded Social comments